Time,TemperatureF,DewpointF,PressureIn,WindDirection,WindDirectionDegrees,WindSpeedMPH,WindSpeedGustMPH,Humidity,HourlyPrecipIn,Conditions,Clouds,dailyrainin,SolarRadiationWatts/m^2,SoftwareType,DateUTC
2013-02-21 00:01:00,13.0,11.0,-100.00,NNW,346,3.0,9.0,90,0.00,,,0.00,0.000000,,2013-02-21 07:01:00,
2013-02-21 00:11:00,13.0,11.0,-100.00,NNW,346,3.0,9.0,90,0.00,,,0.00,0.000000,,2013-02-21 07:11:00,
2013-02-21 00:21:00,13.0,11.0,-100.00,NNW,346,3.0,9.0,90,0.00,,,0.00,0.000000,,2013-02-21 07:21:00,
2013-02-21 00:31:00,13.0,11.0,-100.00,NNW,346,3.0,9.0,90,0.00,,,0.00,0.000000,,2013-02-21 07:31:00,
2013-02-21 00:40:00,13.0,11.0,-100.00,North,354,2.0,7.0,90,0.00,,,0.00,0.000000,,2013-02-21 07:40:00,
2013-02-21 01:01:00,13.0,11.0,-100.00,North,354,2.0,7.0,90,0.00,,,0.00,0.000000,,2013-02-21 08:01:00,
2013-02-21 01:11:00,13.0,11.0,-100.00,North,354,2.0,7.0,90,0.00,,,0.00,0.000000,,2013-02-21 08:11:00,
2013-02-21 01:21:00,13.0,11.0,-100.00,North,354,2.0,7.0,90,0.00,,,0.00,0.000000,,2013-02-21 08:21:00,
2013-02-21 01:31:00,13.0,11.0,-100.00,North,354,2.0,7.0,90,0.00,,,0.00,0.000000,,2013-02-21 08:31:00,
2013-02-21 01:40:00,13.0,11.0,-100.00,NNE,22,2.0,9.0,90,0.00,,,0.00,0.000000,,2013-02-21 08:40:00,
2013-02-21 02:01:00,13.0,11.0,-100.00,NNE,22,2.0,9.0,90,0.00,,,0.00,0.000000,,2013-02-21 09:01:00,
2013-02-21 02:11:00,13.0,11.0,-100.00,NNE,22,2.0,9.0,90,0.00,,,0.00,0.000000,,2013-02-21 09:11:00,
2013-02-21 02:22:00,13.0,11.0,-100.00,NNE,22,2.0,9.0,90,0.00,,,0.00,0.000000,,2013-02-21 09:22:00,
2013-02-21 02:31:00,13.0,11.0,-100.00,NNE,22,2.0,9.0,90,0.00,,,0.00,0.000000,,2013-02-21 09:31:00,
2013-02-21 02:40:00,13.0,11.0,-100.00,North,2,2.0,8.0,90,0.00,,,0.00,0.000000,,2013-02-21 09:40:00,
2013-02-21 03:01:00,13.0,11.0,-100.00,North,2,2.0,8.0,90,0.00,,,0.00,0.000000,,2013-02-21 10:01:00,
2013-02-21 03:11:00,13.0,11.0,-100.00,North,2,2.0,8.0,90,0.00,,,0.00,0.000000,,2013-02-21 10:11:00,
2013-02-21 03:21:00,13.0,11.0,-100.00,North,2,2.0,8.0,90,0.00,,,0.00,0.000000,,2013-02-21 10:21:00,
2013-02-21 03:31:00,13.0,11.0,-100.00,North,2,2.0,8.0,90,0.00,,,0.00,0.000000,,2013-02-21 10:31:00,
2013-02-21 03:40:00,14.0,12.0,-100.00,NNW,337,1.0,6.0,90,0.00,,,0.00,0.000000,,2013-02-21 10:40:00,
2013-02-21 04:01:00,14.0,12.0,-100.00,NNW,337,1.0,6.0,90,0.00,,,0.00,0.000000,,2013-02-21 11:01:00,
2013-02-21 04:11:00,14.0,12.0,-100.00,NNW,337,1.0,6.0,90,0.00,,,0.00,0.000000,,2013-02-21 11:11:00,
2013-02-21 04:21:00,14.0,12.0,-100.00,NNW,337,1.0,6.0,90,0.00,,,0.00,0.000000,,2013-02-21 11:21:00,
2013-02-21 04:31:00,14.0,12.0,-100.00,NNW,337,1.0,6.0,90,0.00,,,0.00,0.000000,,2013-02-21 11:31:00,
2013-02-21 04:40:00,13.0,11.0,-100.00,NE,43,1.0,5.0,90,0.00,,,0.00,0.000000,,2013-02-21 11:40:00,
2013-02-21 05:01:00,13.0,11.0,-100.00,NE,43,1.0,5.0,90,0.00,,,0.00,0.000000,,2013-02-21 12:01:00,
2013-02-21 05:11:00,13.0,11.0,-100.00,NE,43,1.0,5.0,90,0.00,,,0.00,0.000000,,2013-02-21 12:11:00,
2013-02-21 05:21:00,13.0,11.0,-100.00,NE,43,1.0,5.0,90,0.00,,,0.00,0.000000,,2013-02-21 12:21:00,
2013-02-21 05:32:00,13.0,11.0,-100.00,NE,43,1.0,5.0,90,0.00,,,0.00,0.000000,,2013-02-21 12:32:00,
2013-02-21 05:40:00,12.0,10.0,-100.00,North,6,2.0,5.0,90,0.00,,,0.00,0.000000,,2013-02-21 12:40:00,
2013-02-21 06:01:00,12.0,10.0,-100.00,North,6,2.0,5.0,90,0.00,,,0.00,0.000000,,2013-02-21 13:01:00,
2013-02-21 06:12:00,12.0,10.0,-100.00,North,6,2.0,5.0,90,0.00,,,0.00,0.000000,,2013-02-21 13:12:00,
2013-02-21 06:22:00,12.0,10.0,-100.00,North,6,2.0,5.0,90,0.00,,,0.00,0.000000,,2013-02-21 13:22:00,
2013-02-21 06:31:00,12.0,10.0,-100.00,North,6,2.0,5.0,90,0.00,,,0.00,0.000000,,2013-02-21 13:31:00,
2013-02-21 06:40:00,12.0,9.0,-100.00,NNW,348,0.0,7.0,89,0.00,,,0.00,0.000000,,2013-02-21 13:40:00,
2013-02-21 07:02:00,12.0,9.0,-100.00,NNW,348,0.0,7.0,89,0.00,,,0.00,0.000000,,2013-02-21 14:02:00,
2013-02-21 07:11:00,12.0,9.0,-100.00,NNW,348,0.0,7.0,89,0.00,,,0.00,0.000000,,2013-02-21 14:11:00,
2013-02-21 07:21:00,12.0,9.0,-100.00,NNW,348,0.0,7.0,89,0.00,,,0.00,0.000000,,2013-02-21 14:21:00,
2013-02-21 07:31:00,12.0,9.0,-100.00,NNW,348,0.0,7.0,89,0.00,,,0.00,0.000000,,2013-02-21 14:31:00,
2013-02-21 07:40:00,12.0,9.0,-100.00,ESE,120,0.0,2.0,89,0.00,,,0.00,4.000000,,2013-02-21 14:40:00,
2013-02-21 08:01:00,12.0,9.0,-100.00,ESE,120,0.0,2.0,89,0.00,,,0.00,4.000000,,2013-02-21 15:01:00,
2013-02-21 08:12:00,12.0,9.0,-100.00,ESE,120,0.0,2.0,89,0.00,,,0.00,4.000000,,2013-02-21 15:12:00,
2013-02-21 08:21:00,12.0,9.0,-100.00,ESE,120,0.0,2.0,89,0.00,,,0.00,4.000000,,2013-02-21 15:21:00,
2013-02-21 08:31:00,12.0,9.0,-100.00,ESE,120,0.0,2.0,89,0.00,,,0.00,4.000000,,2013-02-21 15:31:00,
2013-02-21 09:01:00,21.0,18.0,-100.00,NW,306,0.0,3.0,89,0.00,,,0.00,65.000000,,2013-02-21 16:01:00,
2013-02-21 10:01:00,25.0,20.0,-100.00,North,358,1.0,5.0,82,-99.99,,,0.00,125.000000,,2013-02-21 17:01:00,
2013-02-21 11:01:00,33.0,17.0,-100.00,North,355,2.0,5.0,51,0.05,,,0.05,307.000000,,2013-02-21 18:01:00,
2013-02-21 11:40:00,26.0,15.0,-100.00,North,349,1.0,5.0,63,-99.99,,,0.05,212.000000,,2013-02-21 18:40:00,
2013-02-21 12:01:00,26.0,15.0,-100.00,North,349,1.0,5.0,63,-99.99,,,0.05,212.000000,,2013-02-21 19:01:00,
2013-02-21 12:11:00,26.0,15.0,-100.00,North,349,1.0,5.0,63,-99.99,,,0.05,212.000000,,2013-02-21 19:11:00,
2013-02-21 12:21:00,26.0,15.0,-100.00,North,349,1.0,5.0,63,-99.99,,,0.05,212.000000,,2013-02-21 19:21:00,
2013-02-21 12:31:00,26.0,15.0,-100.00,North,349,1.0,5.0,63,-99.99,,,0.05,212.000000,,2013-02-21 19:31:00,
2013-02-21 12:40:00,26.0,18.0,-100.00,NNW,333,1.0,5.0,70,0.00,,,0.05,288.000000,,2013-02-21 19:40:00,
2013-02-21 13:01:00,26.0,18.0,-100.00,NNW,333,1.0,5.0,70,0.00,,,0.05,288.000000,,2013-02-21 20:01:00,
2013-02-21 13:11:00,26.0,18.0,-100.00,NNW,333,1.0,5.0,70,0.00,,,0.05,288.000000,,2013-02-21 20:11:00,
2013-02-21 13:21:00,26.0,18.0,-100.00,NNW,333,1.0,5.0,70,0.00,,,0.05,288.000000,,2013-02-21 20:21:00,
2013-02-21 13:31:00,26.0,18.0,-100.00,NNW,333,1.0,5.0,70,0.00,,,0.05,288.000000,,2013-02-21 20:31:00,
2013-02-21 13:40:00,23.0,17.0,-100.00,NNW,338,1.0,4.0,78,0.00,,,0.05,205.000000,,2013-02-21 20:40:00,
2013-02-21 14:02:00,23.0,17.0,-100.00,NNW,338,1.0,4.0,78,0.00,,,0.05,205.000000,,2013-02-21 21:02:00,
2013-02-21 14:11:00,23.0,17.0,-100.00,NNW,338,1.0,4.0,78,0.00,,,0.05,205.000000,,2013-02-21 21:11:00,
2013-02-21 14:21:00,23.0,17.0,-100.00,NNW,338,1.0,4.0,78,0.00,,,0.05,205.000000,,2013-02-21 21:21:00,
2013-02-21 14:31:00,23.0,17.0,-100.00,NNW,338,1.0,4.0,78,0.00,,,0.05,205.000000,,2013-02-21 21:31:00,
2013-02-21 14:40:00,22.0,16.0,-100.00,North,354,1.0,4.0,78,0.00,,,0.05,154.000000,,2013-02-21 21:40:00,
2013-02-21 15:01:00,22.0,16.0,-100.00,North,354,1.0,4.0,78,0.00,,,0.05,154.000000,,2013-02-21 22:01:00,
2013-02-21 15:11:00,22.0,16.0,-100.00,North,354,1.0,4.0,78,0.00,,,0.05,154.000000,,2013-02-21 22:11:00,
2013-02-21 15:21:00,22.0,16.0,-100.00,North,354,1.0,4.0,78,0.00,,,0.05,154.000000,,2013-02-21 22:21:00,
2013-02-21 15:31:00,22.0,16.0,-100.00,North,354,1.0,4.0,78,0.00,,,0.05,154.000000,,2013-02-21 22:31:00,
2013-02-21 15:40:00,20.0,15.0,-100.00,NE,46,2.0,4.0,81,0.00,,,0.05,131.000000,,2013-02-21 22:40:00,
2013-02-21 16:01:00,20.0,15.0,-100.00,NE,46,2.0,4.0,81,0.00,,,0.05,131.000000,,2013-02-21 23:01:00,
2013-02-21 16:11:00,20.0,15.0,-100.00,NE,46,2.0,4.0,81,0.00,,,0.05,131.000000,,2013-02-21 23:11:00,
2013-02-21 16:21:00,20.0,15.0,-100.00,NE,46,2.0,4.0,81,0.00,,,0.05,131.000000,,2013-02-21 23:21:00,
2013-02-21 16:31:00,20.0,15.0,-100.00,NE,46,2.0,4.0,81,0.00,,,0.05,131.000000,,2013-02-21 23:31:00,
2013-02-21 16:40:00,16.0,14.0,-100.00,ENE,74,0.0,4.0,90,0.00,,,0.05,59.000000,,2013-02-21 23:40:00,
2013-02-21 17:01:00,16.0,14.0,-100.00,ENE,74,0.0,4.0,90,0.00,,,0.05,59.000000,,2013-02-22 00:01:00,
2013-02-21 17:11:00,16.0,14.0,-100.00,ENE,74,0.0,4.0,90,0.00,,,0.05,59.000000,,2013-02-22 00:11:00,
2013-02-21 17:21:00,16.0,14.0,-100.00,ENE,74,0.0,4.0,90,0.00,,,0.05,59.000000,,2013-02-22 00:21:00,
2013-02-21 17:31:00,16.0,14.0,-100.00,ENE,74,0.0,4.0,90,0.00,,,0.05,59.000000,,2013-02-22 00:31:00,
2013-02-21 17:40:00,15.0,13.0,-100.00,West,281,1.0,4.0,91,0.00,,,0.05,11.000000,,2013-02-22 00:40:00,
2013-02-21 18:01:00,15.0,13.0,-100.00,West,281,1.0,4.0,91,0.00,,,0.05,11.000000,,2013-02-22 01:01:00,
2013-02-21 18:11:00,15.0,13.0,-100.00,West,281,1.0,4.0,91,0.00,,,0.05,11.000000,,2013-02-22 01:11:00,
2013-02-21 18:21:00,15.0,13.0,-100.00,West,281,1.0,4.0,91,0.00,,,0.05,11.000000,,2013-02-22 01:21:00,
2013-02-21 18:32:00,15.0,13.0,-100.00,West,281,1.0,4.0,91,0.00,,,0.05,11.000000,,2013-02-22 01:32:00,
2013-02-21 18:40:00,14.0,12.0,-100.00,West,268,2.0,8.0,91,0.00,,,0.05,1.000000,,2013-02-22 01:40:00,
2013-02-21 19:02:00,14.0,12.0,-100.00,West,268,2.0,8.0,91,0.00,,,0.05,1.000000,,2013-02-22 02:02:00,
2013-02-21 19:11:00,14.0,12.0,-100.00,West,268,2.0,8.0,91,0.00,,,0.05,1.000000,,2013-02-22 02:11:00,
2013-02-21 19:21:00,14.0,12.0,-100.00,West,268,2.0,8.0,91,0.00,,,0.05,1.000000,,2013-02-22 02:21:00,
2013-02-21 19:31:00,14.0,12.0,-100.00,West,268,2.0,8.0,91,0.00,,,0.05,1.000000,,2013-02-22 02:31:00,
2013-02-21 19:40:00,14.0,12.0,-100.00,SW,235,6.0,12.0,90,0.00,,,0.05,0.000000,,2013-02-22 02:40:00,
2013-02-21 20:01:00,14.0,12.0,-100.00,SW,235,6.0,12.0,90,0.00,,,0.05,0.000000,,2013-02-22 03:01:00,
2013-02-21 20:11:00,14.0,12.0,-100.00,SW,235,6.0,12.0,90,0.00,,,0.05,0.000000,,2013-02-22 03:11:00,
2013-02-21 20:21:00,14.0,12.0,-100.00,SW,235,6.0,12.0,90,0.00,,,0.05,0.000000,,2013-02-22 03:21:00,
2013-02-21 20:31:00,14.0,12.0,-100.00,SW,235,6.0,12.0,90,0.00,,,0.05,0.000000,,2013-02-22 03:31:00,
2013-02-21 20:40:00,12.0,9.0,-100.00,SW,225,10.0,16.0,89,0.00,,,0.05,0.000000,,2013-02-22 03:40:00,
2013-02-21 21:01:00,12.0,9.0,-100.00,SW,225,10.0,16.0,89,0.00,,,0.05,0.000000,,2013-02-22 04:01:00,
2013-02-21 21:11:00,12.0,9.0,-100.00,SW,225,10.0,16.0,89,0.00,,,0.05,0.000000,,2013-02-22 04:11:00,
2013-02-21 21:21:00,12.0,9.0,-100.00,SW,225,10.0,16.0,89,0.00,,,0.05,0.000000,,2013-02-22 04:21:00,
2013-02-21 21:31:00,12.0,9.0,-100.00,SW,225,10.0,16.0,89,0.00,,,0.05,0.000000,,2013-02-22 04:31:00,
2013-02-21 21:40:00,10.0,7.0,-100.00,SW,222,7.0,15.0,88,0.00,,,0.05,0.000000,,2013-02-22 04:40:00,
2013-02-21 22:01:00,10.0,7.0,-100.00,SW,222,7.0,15.0,88,0.00,,,0.05,0.000000,,2013-02-22 05:01:00,
2013-02-21 22:11:00,10.0,7.0,-100.00,SW,222,7.0,15.0,88,0.00,,,0.05,0.000000,,2013-02-22 05:11:00,
2013-02-21 22:22:00,10.0,7.0,-100.00,SW,222,7.0,15.0,88,0.00,,,0.05,0.000000,,2013-02-22 05:22:00,
2013-02-21 22:32:00,10.0,7.0,-100.00,SW,222,7.0,15.0,88,0.00,,,0.05,0.000000,,2013-02-22 05:32:00,
2013-02-21 22:40:00,8.0,5.0,-100.00,SW,226,7.0,13.0,86,0.00,,,0.05,0.000000,,2013-02-22 05:40:00,
2013-02-21 23:01:00,8.0,5.0,-100.00,SW,226,7.0,13.0,86,0.00,,,0.05,0.000000,,2013-02-22 06:01:00,
2013-02-21 23:11:00,8.0,5.0,-100.00,SW,226,7.0,13.0,86,0.00,,,0.05,0.000000,,2013-02-22 06:11:00,
2013-02-21 23:21:00,8.0,5.0,-100.00,SW,226,7.0,13.0,86,0.00,,,0.05,0.000000,,2013-02-22 06:21:00,
2013-02-21 23:31:00,8.0,5.0,-100.00,SW,226,7.0,13.0,86,0.00,,,0.05,0.000000,,2013-02-22 06:31:00,
2013-02-21 23:40:00,7.0,4.0,-100.00,SW,219,8.0,13.0,86,0.00,,,0.05,0.000000,,2013-02-22 06:40:00,